»·PEaware :: UAL1399 KFMN-KTEX

UAL1399 :: KFMN-KTEX

FLIGHT INFORMATION

Flight Status: Arrived
Operator:
United Airlines
More flights by this operator :: More flights under this callsign
Pilot: David C. (16084)
Aircraft: SAAB 340
(SF34)
More flights by this aircraft type
Origin: KFMN Four Corners Regl
United States
Destination: KTEX Telluride Regl
United States
More flights between these airports :: More routes between these airports
Route: PLATA1 CEZ V68 ETL
File this flight plan on PilotEdge
Remarks:
Altitude:
(Current/Filed)
16,000ft
Speed:
(Current/Filed)
285kts
Departed: 08-Jun-19 10:33 AM
Arrived: 08-Jun-19 11:08 AM
Distance/Time
Traveled:
74nm/0:35
Distance/Time
To Go:
Arrived

Flight Plot

Page will automatically refresh every two minutes.


Map Options




Map Legend


Flown Route
Filed Route
Departure Airport
Arrival Airport
Navaid (VOR, NDB)
Fix

Horizontal Profiles

Position Reports

Time Latitude Longitude Heading Altitude Ground
Speed
08-Jun-19 09:59 36.739639 -108.229178 238 5508ft 0kts
08-Jun-19 10:00 36.739639 -108.229178 238 5508ft 0kts
08-Jun-19 10:01 36.739639 -108.229178 238 5508ft 0kts
08-Jun-19 10:02 36.739639 -108.229178 238 5508ft 0kts
08-Jun-19 10:03 36.739639 -108.229178 238 5508ft 0kts
08-Jun-19 10:04 36.739639 -108.229178 238 5508ft 0kts
08-Jun-19 10:05 36.739639 -108.229178 238 5508ft 0kts
08-Jun-19 10:06 36.739639 -108.229178 238 5508ft 0kts
08-Jun-19 10:07 36.739639 -108.229178 238 5508ft 0kts
08-Jun-19 10:08 36.739639 -108.229178 238 5508ft 0kts
08-Jun-19 10:09 36.739639 -108.229178 238 5508ft 0kts
08-Jun-19 10:10 36.739639 -108.229178 238 5508ft 0kts
08-Jun-19 10:11 36.739639 -108.229178 238 5508ft 0kts
08-Jun-19 10:12 36.739639 -108.229178 238 5508ft 0kts
08-Jun-19 10:13 36.739639 -108.229178 238 5508ft 0kts
08-Jun-19 10:14 36.739639 -108.229178 238 5508ft 0kts
08-Jun-19 10:15 36.739639 -108.229178 238 5508ft 0kts
08-Jun-19 10:16 36.739639 -108.229178 238 5508ft 0kts
08-Jun-19 10:18 36.739639 -108.229178 238 5508ft 0kts
08-Jun-19 10:19 36.739639 -108.229178 238 5508ft 0kts
08-Jun-19 10:20 36.739639 -108.229178 238 5508ft 0kts
08-Jun-19 10:21 36.739639 -108.229178 238 5508ft 0kts
08-Jun-19 10:22 36.739639 -108.229178 238 5508ft 0kts
08-Jun-19 10:23 36.739639 -108.229178 238 5508ft 0kts
08-Jun-19 10:24 36.739639 -108.229178 238 5508ft 0kts
08-Jun-19 10:25 36.739639 -108.229178 238 5508ft 0kts
08-Jun-19 10:26 36.739610 -108.229374 275 5508ft 5kts
08-Jun-19 10:27 36.740556 -108.229085 90 5508ft 12kts
08-Jun-19 10:28 36.740676 -108.224236 87 5508ft 15kts
08-Jun-19 10:29 36.740805 -108.219011 87 5508ft 12kts
08-Jun-19 10:30 36.741167 -108.217172 21 5508ft 0kts
08-Jun-19 10:31 36.741167 -108.217172 21 5508ft 0kts
08-Jun-19 10:32 36.741537 -108.217250 322 5508ft 4kts
08-Jun-19 10:33 36.741307 -108.231188 268 5508ft 125kts
08-Jun-19 10:34 36.760576 -108.273185 3 6927ft 200kts
08-Jun-19 10:35 36.815584 -108.258036 9 9102ft 204kts
08-Jun-19 10:36 36.870616 -108.241697 9 10516ft 200kts
08-Jun-19 10:36 36.915906 -108.227721 9 11569ft 204kts
08-Jun-19 10:38 36.980865 -108.207397 4 12867ft 208kts
08-Jun-19 10:39 37.026431 -108.243737 316 13775ft 201kts
08-Jun-19 10:39 37.062612 -108.281442 316 14486ft 206kts
08-Jun-19 10:41 37.113793 -108.335009 316 15570ft 206kts
08-Jun-19 10:41 37.151120 -108.374219 316 16012ft 219kts
08-Jun-19 10:42 37.201651 -108.424381 325 16022ft 242kts
08-Jun-19 10:43 37.260612 -108.467725 327 16020ft 250kts
08-Jun-19 10:44 37.321249 -108.511829 327 16017ft 252kts
08-Jun-19 10:45 37.382114 -108.556135 327 16016ft 254kts
08-Jun-19 10:46 37.440300 -108.605975 322 16016ft 253kts
08-Jun-19 10:47 37.497505 -108.656231 321 16018ft 253kts
08-Jun-19 10:48 37.555366 -108.707141 321 16018ft 254kts
08-Jun-19 10:49 37.613276 -108.758198 321 16018ft 254kts
08-Jun-19 10:50 37.671099 -108.809284 321 16018ft 254kts
08-Jun-19 10:51 37.728923 -108.860468 322 16018ft 254kts
08-Jun-19 10:52 37.786917 -108.911819 324 16017ft 255kts
08-Jun-19 10:53 37.835937 -108.869640 77 16022ft 266kts
08-Jun-19 10:54 37.861285 -108.781249 67 16019ft 268kts
08-Jun-19 10:55 37.890780 -108.694753 66 16019ft 268kts
08-Jun-19 10:56 37.921131 -108.606617 66 15633ft 280kts
08-Jun-19 10:57 37.952873 -108.514254 66 14812ft 291kts
08-Jun-19 10:58 37.985474 -108.419102 66 13830ft 292kts
08-Jun-19 10:59 38.013389 -108.337436 67 13095ft 230kts
08-Jun-19 11:00 38.037173 -108.267568 68 12970ft 203kts
08-Jun-19 11:01 38.016619 -108.204911 110 13001ft 209kts
08-Jun-19 11:02 38.001005 -108.134687 106 12996ft 204kts
08-Jun-19 11:03 37.988122 -108.072820 106 12083ft 157kts
08-Jun-19 11:04 37.977198 -108.020424 106 11078ft 155kts
08-Jun-19 11:05 37.966303 -107.967770 108 10141ft 154kts
08-Jun-19 11:06 37.955047 -107.914456 107 9084ft 135kts
08-Jun-19 11:07 37.952814 -107.901309 13 9080ft 5kts
08-Jun-19 11:08 37.954331 -107.902478 9 9080ft 0kts
08-Jun-19 11:09 37.954331 -107.902478 9 9080ft 0kts
08-Jun-19 11:10 37.954331 -107.902478 9 9080ft 0kts

Navigation Log

Ident Type
Flight plan parsing failed, navigation log unavailable